createdAt,value
2022-12-23T00:01:53.363Z,7.32
2022-12-23T00:04:20.773Z,7.68
2022-12-23T00:06:48.087Z,9.07
2022-12-23T00:09:15.345Z,6.35
2022-12-23T00:12:02.589Z,7.55
2022-12-23T00:15:02.220Z,6.60
2022-12-23T00:17:29.494Z,7.05
2022-12-23T00:19:56.746Z,8.13
2022-12-23T00:22:44.063Z,5.55
2022-12-23T00:25:12.317Z,5.82
2022-12-23T00:27:40.077Z,7.05
2022-12-23T00:30:09.621Z,5.13
2022-12-23T00:32:37.166Z,8.23
2022-12-23T00:35:04.729Z,8.75
2022-12-23T00:37:32.141Z,6.07
2022-12-23T00:40:17.912Z,6.00
2022-12-23T00:42:54.012Z,6.40
2022-12-23T00:45:22.117Z,7.93
2022-12-23T00:48:08.531Z,5.85
2022-12-23T00:50:39.854Z,5.85
2022-12-23T00:53:07.508Z,8.65
2022-12-23T00:55:34.887Z,7.32
2022-12-23T00:58:02.195Z,4.47
2022-12-23T01:00:47.808Z,6.22
2022-12-23T01:03:34.347Z,4.35
2022-12-23T01:06:03.106Z,5.68
2022-12-23T01:08:30.404Z,4.53
2022-12-23T01:11:02.474Z,5.45
2022-12-23T01:13:29.763Z,5.55
2022-12-23T01:16:07.462Z,4.78
2022-12-23T01:18:37.846Z,4.53
2022-12-23T01:21:08.974Z,2.97
2022-12-23T01:23:36.878Z,4.45
2022-12-23T01:26:06.667Z,5.25
2022-12-23T01:28:34.976Z,4.85
2022-12-23T01:31:04.493Z,3.67
2022-12-23T01:33:32.684Z,4.55
2022-12-23T01:36:01.898Z,3.55
2022-12-23T01:38:30.105Z,3.58
2022-12-23T01:40:57.737Z,3.10
2022-12-23T01:43:45.911Z,4.32
2022-12-23T01:46:13.341Z,3.90
2022-12-23T01:48:44.198Z,3.22
2022-12-23T01:51:27.363Z,4.38
2022-12-23T01:54:01.028Z,3.40
2022-12-23T01:56:39.053Z,3.83
2022-12-23T01:59:35.058Z,5.28
2022-12-23T02:02:21.187Z,2.22
2022-12-23T02:04:50.224Z,3.80
2022-12-23T02:07:37.055Z,2.38
2022-12-23T02:10:05.821Z,3.78
2022-12-23T02:12:42.467Z,3.42
2022-12-23T02:16:09.684Z,2.88
2022-12-23T02:19:13.402Z,4.30
2022-12-23T02:21:43.323Z,3.22
2022-12-23T02:24:49.252Z,3.28
2022-12-23T02:29:43.678Z,3.72
2022-12-23T02:32:35.385Z,3.63
2022-12-23T02:35:19.370Z,3.53
2022-12-23T02:38:13.584Z,3.03
2022-12-23T02:41:06.963Z,2.88
2022-12-23T02:43:46.857Z,2.97
2022-12-23T02:46:26.754Z,3.05
2022-12-23T02:49:15.205Z,3.85
2022-12-23T02:51:48.926Z,3.47
2022-12-23T02:54:21.492Z,3.00
2022-12-23T02:56:51.710Z,3.13
2022-12-23T02:59:24.194Z,3.13
2022-12-23T03:01:54.046Z,3.15
2022-12-23T03:04:21.727Z,2.25
2022-12-23T03:06:57.422Z,2.92
2022-12-23T03:09:52.002Z,2.80
2022-12-23T03:12:54.624Z,2.35
2022-12-23T03:15:47.064Z,2.97
2022-12-23T03:18:39.133Z,4.80
2022-12-23T03:21:30.777Z,3.92
2022-12-23T03:24:24.505Z,3.00
2022-12-23T03:27:00.830Z,2.90
2022-12-23T03:29:37.318Z,2.38
2022-12-23T03:32:06.812Z,3.08
2022-12-23T03:34:39.203Z,2.70
2022-12-23T03:37:10.764Z,3.22
2022-12-23T03:39:46.664Z,4.18
2022-12-23T03:42:28.633Z,3.97
2022-12-23T03:45:36.440Z,2.85
2022-12-23T03:47:55.719Z,2.65
2022-12-23T03:50:25.316Z,4.18
2022-12-23T03:53:02.498Z,3.13
2022-12-23T03:55:41.280Z,3.60
2022-12-23T03:58:28.293Z,2.78
2022-12-23T04:01:19.828Z,3.92
2022-12-23T04:04:13.068Z,2.25
2022-12-23T04:07:07.707Z,3.67
2022-12-23T04:09:36.314Z,4.68
2022-12-23T04:12:04.095Z,3.20
2022-12-23T04:14:33.832Z,3.40
2022-12-23T04:17:01.239Z,4.20
2022-12-23T04:19:28.514Z,3.58
2022-12-23T04:21:59.737Z,4.75
2022-12-23T04:24:26.967Z,4.10
2022-12-23T04:26:54.240Z,3.97
2022-12-23T04:29:21.522Z,4.13
2022-12-23T04:31:48.877Z,3.85
2022-12-23T04:34:16.214Z,3.35
2022-12-23T04:36:43.445Z,4.00
2022-12-23T04:39:10.734Z,4.25
2022-12-23T04:41:37.958Z,3.92
2022-12-23T04:44:05.378Z,4.15
2022-12-23T04:46:32.763Z,3.63
2022-12-23T04:49:00.101Z,3.72
2022-12-23T04:51:27.415Z,3.40
2022-12-23T04:53:54.726Z,3.38
2022-12-23T04:56:22.112Z,2.95
2022-12-23T04:58:49.380Z,4.22
2022-12-23T05:01:16.625Z,3.85
2022-12-23T05:03:43.957Z,3.25
2022-12-23T05:06:11.322Z,4.38
2022-12-23T05:08:38.637Z,3.53
2022-12-23T05:11:05.865Z,3.70
2022-12-23T05:13:33.143Z,3.35
2022-12-23T05:16:00.430Z,4.70
2022-12-23T05:18:27.724Z,3.92
2022-12-23T05:20:55.347Z,3.83
2022-12-23T05:23:22.609Z,3.88
2022-12-23T05:25:54.075Z,3.78
2022-12-23T05:28:22.737Z,5.15
2022-12-23T05:30:50.068Z,5.00
2022-12-23T05:33:17.381Z,4.15
2022-12-23T05:35:44.665Z,5.10
2022-12-23T05:38:12.528Z,3.40
2022-12-23T05:40:39.788Z,4.22
2022-12-23T05:43:07.179Z,3.55
2022-12-23T05:45:36.270Z,4.05
2022-12-23T05:48:03.986Z,3.88
2022-12-23T05:50:31.489Z,4.00
2022-12-23T05:52:58.775Z,4.75
2022-12-23T05:55:27.023Z,4.38
2022-12-23T05:57:54.448Z,5.22
2022-12-23T06:00:22.240Z,4.25
2022-12-23T06:02:53.840Z,4.43
2022-12-23T06:05:22.262Z,4.15
2022-12-23T06:07:49.840Z,4.57
2022-12-23T06:10:17.207Z,4.53
2022-12-23T06:12:44.622Z,4.60
2022-12-23T06:15:12.562Z,4.47
2022-12-23T06:17:39.842Z,5.18
2022-12-23T06:20:07.812Z,6.68
2022-12-23T06:22:35.104Z,10.77
2022-12-23T06:25:02.437Z,8.10
2022-12-23T06:27:29.761Z,6.40
2022-12-23T06:29:57.302Z,6.82
2022-12-23T06:32:24.657Z,7.55
2022-12-23T06:34:53.374Z,6.65
2022-12-23T06:37:23.918Z,8.02
2022-12-23T06:39:51.224Z,7.85
2022-12-23T06:42:18.588Z,6.65
2022-12-23T06:44:45.828Z,6.15
2022-12-23T06:47:13.060Z,7.45
2022-12-23T06:49:40.347Z,6.20
2022-12-23T06:52:07.605Z,7.20
2022-12-23T06:54:34.855Z,5.63
2022-12-23T06:57:02.160Z,7.85
2022-12-23T06:59:29.984Z,4.63
2022-12-23T07:01:57.419Z,6.15
2022-12-23T07:04:24.820Z,6.00
2022-12-23T07:06:52.079Z,5.30
2022-12-23T07:09:19.396Z,5.25
2022-12-23T07:11:46.828Z,6.00
2022-12-23T07:14:14.067Z,5.97
2022-12-23T07:16:41.484Z,4.95
2022-12-23T07:19:08.797Z,4.70
2022-12-23T07:21:36.758Z,5.00
2022-12-23T07:24:04.575Z,4.95
2022-12-23T07:26:31.870Z,5.45
2022-12-23T07:28:59.139Z,5.03
2022-12-23T07:31:26.545Z,4.47
2022-12-23T07:33:53.954Z,4.07
2022-12-23T07:36:21.202Z,5.47
2022-12-23T07:38:51.909Z,5.20
2022-12-23T07:41:19.427Z,3.60
2022-12-23T07:43:47.223Z,5.28
2022-12-23T07:46:14.661Z,3.92
2022-12-23T07:48:42.195Z,3.97
2022-12-23T07:51:09.628Z,3.67
2022-12-23T07:53:36.941Z,3.72
2022-12-23T07:56:04.634Z,3.50
2022-12-23T07:58:32.033Z,3.35
2022-12-23T08:01:05.282Z,2.90
2022-12-23T08:03:32.950Z,3.75
2022-12-23T08:06:02.629Z,3.03
2022-12-23T08:08:30.206Z,3.25
2022-12-23T08:10:59.676Z,3.50
2022-12-23T08:13:27.694Z,2.80
2022-12-23T08:16:00.093Z,3.20
2022-12-23T08:18:29.752Z,2.55
2022-12-23T08:21:02.217Z,2.97
2022-12-23T08:23:31.541Z,3.00
2022-12-23T08:26:04.433Z,3.22
2022-12-23T08:28:32.286Z,2.50
2022-12-23T08:31:31.946Z,2.50
2022-12-23T08:34:00.721Z,2.50
2022-12-23T08:36:31.666Z,2.90
2022-12-23T08:39:01.302Z,3.83
2022-12-23T08:41:31.761Z,3.47
2022-12-23T08:43:59.235Z,3.47
2022-12-23T08:46:27.080Z,2.70
2022-12-23T08:48:55.520Z,3.95
2022-12-23T08:51:24.924Z,2.92
2022-12-23T08:54:00.099Z,3.33
2022-12-23T08:56:33.072Z,4.07
2022-12-23T08:59:00.576Z,2.92
2022-12-23T09:01:30.723Z,4.60
2022-12-23T09:03:58.440Z,3.55
2022-12-23T09:06:30.035Z,3.95
2022-12-23T09:08:58.339Z,3.45
2022-12-23T09:11:28.905Z,4.18
2022-12-23T09:13:58.702Z,3.58
2022-12-23T09:16:26.171Z,5.72
2022-12-23T09:18:53.509Z,6.07
2022-12-23T09:21:22.804Z,4.85
2022-12-23T09:23:51.058Z,5.95
2022-12-23T09:26:24.428Z,4.47
2022-12-23T09:28:52.896Z,5.88
2022-12-23T09:31:23.577Z,5.63
2022-12-23T09:33:53.166Z,7.45
2022-12-23T09:36:22.023Z,7.15
2022-12-23T09:38:55.103Z,6.38
2022-12-23T09:41:52.312Z,7.75
2022-12-23T09:44:19.527Z,7.50
2022-12-23T09:46:53.981Z,6.95
2022-12-23T09:49:23.844Z,9.90
2022-12-23T09:51:57.475Z,9.18
2022-12-23T09:54:26.078Z,10.63
2022-12-23T09:57:14.052Z,8.95
2022-12-23T10:00:15.145Z,8.95
2022-12-23T10:03:14.003Z,10.20
2022-12-23T10:06:10.999Z,9.25
2022-12-23T10:08:47.843Z,11.75
2022-12-23T10:11:23.585Z,8.88
2022-12-23T10:14:24.400Z,9.32
2022-12-23T10:17:13.145Z,10.68
2022-12-23T10:19:44.235Z,11.65
2022-12-23T10:22:17.156Z,11.57
2022-12-23T10:24:47.444Z,10.57
2022-12-23T10:27:31.408Z,10.48
2022-12-23T10:30:42.435Z,12.10
2022-12-23T10:33:23.347Z,11.35
2022-12-23T10:36:07.452Z,13.43
2022-12-23T10:39:01.795Z,12.73
2022-12-23T10:41:52.062Z,10.60
2022-12-23T10:44:37.443Z,14.23
2022-12-23T10:47:14.668Z,11.07
2022-12-23T10:50:12.304Z,13.57
2022-12-23T10:52:42.709Z,11.80
2022-12-23T10:55:33.266Z,12.73
2022-12-23T10:58:14.606Z,12.25
2022-12-23T11:00:58.390Z,13.70
2022-12-23T11:03:38.344Z,14.60
2022-12-23T11:06:09.702Z,13.02
2022-12-23T11:08:38.981Z,14.70
2022-12-23T11:11:07.541Z,13.20
2022-12-23T11:13:36.896Z,14.38
2022-12-23T11:16:18.960Z,14.10
2022-12-23T11:19:02.593Z,14.35
2022-12-23T11:21:31.567Z,14.85
2022-12-23T11:24:19.994Z,15.82
2022-12-23T11:26:51.091Z,14.18
2022-12-23T11:29:29.161Z,15.63
2022-12-23T11:31:57.355Z,15.43
2022-12-23T11:34:27.348Z,15.23
2022-12-23T11:37:06.969Z,18.85
2022-12-23T11:39:37.086Z,16.35
2022-12-23T11:42:16.180Z,16.83
2022-12-23T11:44:48.752Z,20.95
2022-12-23T11:47:25.423Z,16.88
2022-12-23T11:49:59.194Z,16.55
2022-12-23T11:52:32.660Z,15.37
2022-12-23T11:55:03.244Z,17.90
2022-12-23T11:57:44.497Z,15.00
2022-12-23T12:00:27.555Z,15.57
2022-12-23T12:03:00.382Z,18.02
2022-12-23T12:05:36.959Z,15.52
2022-12-23T12:08:19.085Z,15.88
2022-12-23T12:10:46.613Z,14.68
2022-12-23T12:13:36.795Z,13.82
2022-12-23T12:16:23.134Z,15.10
2022-12-23T12:18:55.721Z,14.77
2022-12-23T12:21:33.339Z,15.10
2022-12-23T12:24:18.876Z,13.75
2022-12-23T12:26:51.417Z,15.52
2022-12-23T12:29:43.703Z,14.30
2022-12-23T12:32:28.411Z,14.07
2022-12-23T12:34:58.130Z,15.15
2022-12-23T12:37:43.603Z,15.38
2022-12-23T12:40:36.149Z,15.07
2022-12-23T12:43:26.187Z,14.02
2022-12-23T12:46:09.039Z,13.45
2022-12-23T12:48:46.103Z,13.95
2022-12-23T12:51:35.292Z,12.63
2022-12-23T12:54:14.523Z,12.50
2022-12-23T12:56:52.329Z,13.68
2022-12-23T12:59:25.968Z,13.23
2022-12-23T13:02:22.409Z,13.82
2022-12-23T13:04:58.636Z,12.52
2022-12-23T13:07:37.400Z,13.05
2022-12-23T13:10:14.035Z,13.65
2022-12-23T13:12:58.654Z,14.70
2022-12-23T13:15:30.897Z,13.43
2022-12-23T13:18:16.209Z,12.82
2022-12-23T13:20:48.504Z,13.52
2022-12-23T13:23:42.748Z,12.25
2022-12-23T13:26:39.875Z,12.75
2022-12-23T13:29:36.918Z,12.90
2022-12-23T13:32:10.093Z,16.20
2022-12-23T13:34:40.190Z,13.15
2022-12-23T13:37:46.085Z,13.50
2022-12-23T13:40:38.012Z,15.32
2022-12-23T13:43:13.573Z,14.27
2022-12-23T13:45:42.605Z,12.05
2022-12-23T13:48:30.505Z,14.43
2022-12-23T13:51:19.941Z,12.75
2022-12-23T13:54:17.870Z,12.73
2022-12-23T13:57:14.516Z,11.00
2022-12-23T14:00:04.911Z,12.63
2022-12-23T14:02:36.140Z,12.35
2022-12-23T14:05:09.268Z,13.27
2022-12-23T14:07:39.043Z,12.85
2022-12-23T14:10:22.756Z,12.10
2022-12-23T14:12:53.034Z,11.40
2022-12-23T14:15:48.050Z,12.88
2022-12-23T14:18:18.629Z,9.73
2022-12-23T14:21:01.598Z,12.38
2022-12-23T14:24:14.513Z,10.80
2022-12-23T14:27:16.201Z,9.15
2022-12-23T14:30:06.035Z,9.93
2022-12-23T14:33:01.742Z,9.35
2022-12-23T14:35:42.222Z,10.38
2022-12-23T14:38:15.893Z,12.10
2022-12-23T14:40:43.134Z,10.88
2022-12-23T14:43:22.598Z,9.70
2022-12-23T14:46:02.400Z,9.93
2022-12-23T14:48:45.040Z,11.20
2022-12-23T14:51:15.317Z,10.48
2022-12-23T14:53:56.676Z,8.63
2022-12-23T14:56:38.597Z,8.50
2022-12-23T14:59:11.382Z,10.75
2022-12-23T15:01:50.050Z,9.80
2022-12-23T15:04:25.793Z,10.85
2022-12-23T15:06:55.279Z,9.07
2022-12-23T15:09:30.409Z,9.40
2022-12-23T15:12:01.185Z,10.38
2022-12-23T15:14:52.777Z,10.73
2022-12-23T15:17:29.539Z,10.70
2022-12-23T15:20:14.984Z,10.80
2022-12-23T15:22:44.716Z,11.07
2022-12-23T15:25:27.931Z,11.25
2022-12-23T15:28:01.848Z,9.80
2022-12-23T15:30:48.661Z,13.32
2022-12-23T15:34:00.974Z,10.90
2022-12-23T15:36:11.344Z,9.77
2022-12-23T15:38:39.641Z,9.93
2022-12-23T15:41:15.413Z,11.82
2022-12-23T15:43:43.641Z,10.00
2022-12-23T15:46:29.239Z,11.75
2022-12-23T15:48:57.216Z,11.80
2022-12-23T15:52:06.598Z,11.05
2022-12-23T15:54:36.820Z,11.70
2022-12-23T15:57:05.683Z,11.10
2022-12-23T15:59:37.229Z,11.48
2022-12-23T16:05:31.995Z,11.50
2022-12-23T16:08:32.798Z,10.98
2022-12-23T16:11:17.185Z,12.48
2022-12-23T16:13:59.984Z,10.52
2022-12-23T16:16:42.274Z,11.68
2022-12-23T16:19:39.085Z,12.63
2022-12-23T16:22:30.497Z,13.57
2022-12-23T16:25:11.886Z,13.15
2022-12-23T16:27:48.754Z,12.13
2022-12-23T16:30:19.205Z,11.80
2022-12-23T16:32:56.256Z,12.23
2022-12-23T16:35:38.982Z,11.88
2022-12-23T16:38:25.256Z,12.43
2022-12-23T16:40:55.320Z,14.48
2022-12-23T16:43:24.870Z,12.57
2022-12-23T16:45:56.541Z,13.57
2022-12-23T16:48:23.763Z,13.00
2022-12-23T16:50:53.277Z,12.75
2022-12-23T16:53:21.016Z,14.93
2022-12-23T16:55:55.249Z,16.15
2022-12-23T16:58:24.386Z,15.18
2022-12-23T17:00:52.665Z,14.32
2022-12-23T17:03:20.980Z,17.23
2022-12-23T17:05:49.087Z,16.50
2022-12-23T17:08:16.560Z,16.00
2022-12-23T17:10:45.144Z,17.27
2022-12-23T17:13:15.798Z,17.00
2022-12-23T17:15:43.195Z,17.48
2022-12-23T17:18:18.152Z,16.55
2022-12-23T17:20:47.466Z,19.55
2022-12-23T17:23:34.950Z,18.90
2022-12-23T17:26:02.235Z,18.15
2022-12-23T17:28:32.732Z,20.52
2022-12-23T17:31:00.538Z,20.20
2022-12-23T17:33:31.251Z,22.42
2022-12-23T17:35:59.384Z,21.85
2022-12-23T17:38:30.112Z,20.13
2022-12-23T17:40:58.591Z,22.08
2022-12-23T17:43:26.738Z,23.08
2022-12-23T17:45:54.104Z,25.13
2022-12-23T17:48:26.545Z,22.80
2022-12-23T17:50:56.960Z,21.75
2022-12-23T17:53:24.240Z,22.00
2022-12-23T17:55:51.482Z,24.73
2022-12-23T17:58:18.780Z,24.48
2022-12-23T18:00:46.189Z,25.30
2022-12-23T18:03:24.091Z,23.38
2022-12-23T18:05:59.158Z,23.13
2022-12-23T18:08:28.809Z,23.67
2022-12-23T18:10:57.379Z,27.35
2022-12-23T18:13:24.681Z,24.20
2022-12-23T18:15:52.631Z,27.48
2022-12-23T18:18:30.959Z,26.50
2022-12-23T18:21:02.856Z,28.33
2022-12-23T18:23:32.366Z,26.20
2022-12-23T18:26:00.405Z,26.63
2022-12-23T18:28:27.821Z,26.15
2022-12-23T18:30:58.901Z,28.88
2022-12-23T18:33:28.771Z,29.45
2022-12-23T18:35:56.552Z,27.90
2022-12-23T18:38:23.902Z,28.38
2022-12-23T18:40:53.956Z,30.02
2022-12-23T18:43:25.530Z,25.60
2022-12-23T18:45:54.042Z,39.22
2022-12-23T18:48:21.840Z,44.00
2022-12-23T18:50:49.206Z,41.08
2022-12-23T18:53:25.325Z,39.83
2022-12-23T18:55:53.764Z,41.70
2022-12-23T18:58:22.326Z,41.53
2022-12-23T19:00:51.018Z,40.20
2022-12-23T19:03:30.371Z,49.47
2022-12-23T19:06:06.368Z,42.95
2022-12-23T19:08:35.331Z,49.00
2022-12-23T19:11:08.823Z,50.25
2022-12-23T19:13:36.113Z,44.65
2022-12-23T19:16:03.530Z,37.80
2022-12-23T19:18:30.845Z,43.30
2022-12-23T19:20:58.093Z,48.65
2022-12-23T19:23:26.436Z,43.33
2022-12-23T19:25:55.453Z,45.35
2022-12-23T19:28:23.523Z,49.05
2022-12-23T19:30:50.970Z,48.10
2022-12-23T19:33:18.318Z,37.65
2022-12-23T19:35:45.780Z,59.40
2022-12-23T19:38:13.128Z,53.67
2022-12-23T19:40:40.870Z,50.97
2022-12-23T19:43:08.234Z,55.70
2022-12-23T19:45:35.568Z,54.85
2022-12-23T19:48:02.969Z,44.92
2022-12-23T19:50:30.221Z,53.90
2022-12-23T19:52:57.537Z,54.90
2022-12-23T19:55:24.982Z,56.45
2022-12-23T19:57:52.248Z,61.85
2022-12-23T20:00:19.621Z,53.38
2022-12-23T20:02:47.021Z,46.58
2022-12-23T20:05:14.314Z,51.45
2022-12-23T20:07:41.585Z,47.00
2022-12-23T20:10:09.395Z,49.63
2022-12-23T20:12:36.667Z,56.95
2022-12-23T20:15:04.348Z,49.53
2022-12-23T20:17:31.634Z,46.88
2022-12-23T20:19:58.918Z,47.25
2022-12-23T20:22:26.218Z,47.10
2022-12-23T20:24:53.522Z,45.72
2022-12-23T20:27:26.069Z,46.65
2022-12-23T20:29:55.280Z,49.72
2022-12-23T20:32:22.562Z,49.97
2022-12-23T20:34:50.202Z,45.70
2022-12-23T20:37:17.673Z,39.90
2022-12-23T20:39:44.986Z,39.70
2022-12-23T20:42:12.247Z,37.65
2022-12-23T20:44:39.578Z,38.40
2022-12-23T20:47:07.237Z,33.60
2022-12-23T20:49:34.499Z,39.88
2022-12-23T20:52:01.934Z,29.80
2022-12-23T20:54:33.197Z,35.28
2022-12-23T20:57:01.806Z,33.67
2022-12-23T20:59:29.107Z,42.08
2022-12-23T21:01:59.080Z,41.97
2022-12-23T21:04:26.814Z,31.45
2022-12-23T21:06:54.127Z,39.08
2022-12-23T21:09:21.379Z,38.30
2022-12-23T21:11:48.989Z,54.70
2022-12-23T21:14:16.645Z,41.88
2022-12-23T21:16:44.448Z,40.13
2022-12-23T21:19:18.615Z,61.67
2022-12-23T21:21:47.023Z,45.42
2022-12-23T21:24:14.874Z,38.90
2022-12-23T21:26:42.298Z,35.38
2022-12-23T21:29:10.928Z,29.73
2022-12-23T21:31:40.465Z,33.35
2022-12-23T21:34:08.587Z,31.30
2022-12-23T21:36:38.591Z,32.83
2022-12-23T21:39:07.888Z,35.42
2022-12-23T21:41:41.258Z,33.75
2022-12-23T21:44:10.130Z,41.20
2022-12-23T21:46:37.447Z,31.00
2022-12-23T21:49:04.811Z,30.10
2022-12-23T21:51:40.801Z,32.72
2022-12-23T21:54:10.421Z,26.20
2022-12-23T21:56:38.723Z,32.63
2022-12-23T21:59:13.865Z,32.28
2022-12-23T22:01:42.570Z,28.25
2022-12-23T22:04:10.142Z,32.30
2022-12-23T22:06:40.480Z,34.13
2022-12-23T22:09:10.519Z,28.33
2022-12-23T22:11:38.936Z,31.65
2022-12-23T22:14:08.809Z,33.92
2022-12-23T22:16:36.534Z,29.77
2022-12-23T22:19:06.143Z,25.40
2022-12-23T22:21:34.336Z,27.70
2022-12-23T22:24:02.864Z,33.45
2022-12-23T22:26:32.295Z,28.40
2022-12-23T22:29:01.731Z,25.67
2022-12-23T22:31:50.126Z,26.10
2022-12-23T22:34:22.576Z,25.27
2022-12-23T22:36:50.191Z,26.45
2022-12-23T22:39:21.703Z,22.58
2022-12-23T22:41:50.792Z,27.00
2022-12-23T22:44:18.480Z,28.67
2022-12-23T22:46:45.895Z,23.27
2022-12-23T22:49:14.922Z,23.92
2022-12-23T22:51:42.880Z,24.63
2022-12-23T22:54:10.613Z,25.17
2022-12-23T22:56:38.239Z,25.88
2022-12-23T22:59:05.607Z,25.10
2022-12-23T23:01:35.521Z,22.55
2022-12-23T23:04:04.074Z,25.90
2022-12-23T23:06:37.820Z,23.25
2022-12-23T23:09:07.684Z,23.73
2022-12-23T23:11:35.174Z,25.45
2022-12-23T23:14:02.848Z,20.33
2022-12-23T23:16:30.348Z,21.48
2022-12-23T23:18:59.028Z,23.77
2022-12-23T23:21:26.834Z,21.92
2022-12-23T23:23:54.516Z,23.25
2022-12-23T23:26:21.891Z,23.83
2022-12-23T23:28:49.457Z,26.13
2022-12-23T23:31:41.444Z,22.85
2022-12-23T23:34:03.964Z,28.95
2022-12-23T23:36:31.270Z,23.23
2022-12-23T23:38:58.581Z,22.33
2022-12-23T23:41:25.921Z,21.63
2022-12-23T23:43:53.283Z,22.70
2022-12-23T23:46:20.894Z,22.65
2022-12-23T23:48:48.309Z,22.52
2022-12-23T23:51:15.599Z,22.92
2022-12-23T23:53:42.912Z,21.20
2022-12-23T23:56:10.260Z,20.80
2022-12-23T23:58:37.976Z,20.50
